Time;durP1;ratioP1;P1;durP2;ratioP2;P2;SDS_P1;SDS_P2;PMS_P1;PMS_P2;Temp;Humidity;BMP_temperature;BMP_pressure;BME280_temperature;BME280_humidity;BME280_pressure;Samples;Min_cycle;Max_cycle;Signal;HPM_P1;HPM_P2
2022/05/24 00:00:36;;;;;;;1.83;1.50;;;13.70;99.90;;;;;;6090206;23;20665;-81
2022/05/24 00:03:02;;;;;;;3.23;1.87;;;13.60;99.90;;;;;;6089764;23;20215;-79
2022/05/24 00:05:31;;;;;;;3.20;2.33;;;13.70;99.90;;;;;;6065927;23;20502;-80
2022/05/24 00:07:57;;;;;;;5.43;2.97;;;13.70;99.90;;;;;;6089714;23;20188;-78
2022/05/24 00:10:30;;;;;;;3.03;2.63;;;13.70;99.90;;;;;;6091803;23;20258;-79
2022/05/24 00:12:56;;;;;;;5.47;3.20;;;13.70;99.90;;;;;;6090434;23;20199;-82
2022/05/24 00:15:23;;;;;;;3.80;2.60;;;13.70;99.90;;;;;;6066345;23;20695;-81
2022/05/24 00:17:56;;;;;;;4.83;3.20;;;13.60;99.90;;;;;;6091424;23;20197;-79
2022/05/24 00:20:25;;;;;;;4.13;2.90;;;13.70;99.90;;;;;;6091359;23;20224;-82
2022/05/24 00:22:52;;;;;;;6.10;3.33;;;13.80;99.90;;;;;;6089416;23;20517;-81
2022/05/24 00:25:18;;;;;;;6.33;2.70;;;13.80;99.90;;;;;;6090200;23;20651;-80
2022/05/24 00:27:45;;;;;;;4.73;3.47;;;13.80;99.90;;;;;;6090124;23;20314;-81
2022/05/24 00:30:12;;;;;;;3.97;2.87;;;13.80;99.90;;;;;;6065829;23;20659;-81
2022/05/24 00:32:37;;;;;;;3.40;3.10;;;13.90;99.90;;;;;;6065988;23;20612;-78
2022/05/24 00:35:03;;;;;;;2.10;1.63;;;13.90;99.90;;;;;;6065916;23;20189;-84
2022/05/24 00:37:29;;;;;;;3.90;2.77;;;13.90;99.90;;;;;;6066088;23;20164;-79
2022/05/24 00:39:55;;;;;;;2.90;2.40;;;13.90;99.90;;;;;;6091772;23;20587;-79
2022/05/24 00:42:29;;;;;;;3.07;1.93;;;13.90;99.90;;;;;;6090016;23;20511;-81
2022/05/24 00:45:06;;;;;;;5.80;2.33;;;13.90;99.90;;;;;;6089722;23;20239;-80
2022/05/24 00:47:39;;;;;;;4.23;3.17;;;13.90;99.90;;;;;;6091281;23;20378;-80
2022/05/24 00:50:19;;;;;;;3.77;1.90;;;13.80;99.90;;;;;;6090794;23;20291;-81
2022/05/24 00:52:54;;;;;;;5.67;2.30;;;13.80;99.90;;;;;;6090813;23;20193;-80
2022/05/24 00:55:22;;;;;;;4.37;2.20;;;13.60;99.90;;;;;;6090845;23;20516;-83
2022/05/24 00:58:07;;;;;;;2.80;2.30;;;13.60;99.90;;;;;;6090079;23;20156;-80
2022/05/24 01:00:33;;;;;;;3.37;2.10;;;13.60;99.90;;;;;;6091162;23;20250;-80
2022/05/24 01:02:59;;;;;;;5.10;2.63;;;13.60;99.90;;;;;;6065352;23;20231;-81
2022/05/24 01:05:28;;;;;;;4.77;1.87;;;13.60;99.90;;;;;;6088721;23;20196;-81
2022/05/24 01:07:54;;;;;;;2.77;1.97;;;13.70;99.90;;;;;;6089581;23;20192;-81
2022/05/24 01:10:51;;;;;;;2.27;1.80;;;13.70;99.90;;;;;;6089522;23;20607;-79
2022/05/24 01:13:24;;;;;;;2.13;1.77;;;13.70;99.90;;;;;;6084689;23;20171;-78
2022/05/24 01:15:51;;;;;;;3.70;2.63;;;13.70;99.90;;;;;;6090172;23;20195;-78
2022/05/24 01:18:18;;;;;;;4.27;2.50;;;13.70;99.90;;;;;;6089344;23;20196;-80
2022/05/24 01:20:49;;;;;;;2.73;2.27;;;13.60;99.90;;;;;;6090708;23;20204;-79
2022/05/24 01:23:54;;;;;;;2.63;1.87;;;13.70;99.90;;;;;;6091045;23;20243;-80
2022/05/24 01:26:33;;;;;;;2.47;2.23;;;13.70;99.90;;;;;;6091575;23;20215;-84
2022/05/24 01:29:03;;;;;;;3.67;2.90;;;13.70;99.90;;;;;;6090688;23;20216;-84
2022/05/24 01:36:59;;;;;;;2.27;1.80;;;13.70;99.90;;;;;;6090016;23;20263;-81
2022/05/24 01:39:25;;;;;;;3.70;1.87;;;13.70;99.90;;;;;;6065681;23;20227;-80
2022/05/24 01:41:51;;;;;;;4.10;1.73;;;13.70;99.90;;;;;;6090623;23;20196;-81
2022/05/24 01:44:39;;;;;;;5.90;3.07;;;13.70;99.90;;;;;;6089551;23;20271;-80
2022/05/24 01:47:04;;;;;;;2.10;1.87;;;13.70;99.90;;;;;;6089437;23;20254;-82
2022/05/24 01:49:35;;;;;;;5.03;2.77;;;13.70;99.90;;;;;;6065452;23;20236;-80
2022/05/24 01:52:07;;;;;;;3.87;3.17;;;13.80;99.90;;;;;;6091329;23;20181;-80
2022/05/24 01:54:38;;;;;;;2.93;2.37;;;13.80;99.90;;;;;;6089412;23;20196;-81
2022/05/24 01:57:22;;;;;;;5.97;2.60;;;13.80;99.90;;;;;;6089279;23;20345;-80
2022/05/24 01:59:50;;;;;;;3.27;2.37;;;13.80;99.90;;;;;;6089287;23;20201;-80
2022/05/24 02:02:16;;;;;;;7.57;2.43;;;13.80;99.90;;;;;;6089441;23;20200;-80
2022/05/24 02:04:43;;;;;;;6.63;2.73;;;13.90;99.90;;;;;;6088981;23;20192;-80
2022/05/24 02:07:14;;;;;;;5.63;2.93;;;13.80;99.90;;;;;;6089784;23;20212;-81
2022/05/24 02:09:45;;;;;;;5.40;3.63;;;13.90;99.90;;;;;;6089292;23;20366;-80
2022/05/24 02:12:14;;;;;;;6.37;3.60;;;13.90;99.90;;;;;;6090857;23;20209;-79
2022/05/24 02:14:44;;;;;;;3.90;3.30;;;13.90;99.90;;;;;;6090786;23;20203;-81
2022/05/24 02:17:21;;;;;;;5.50;3.50;;;13.90;99.90;;;;;;6092598;23;20212;-80
2022/05/24 02:19:51;;;;;;;5.27;2.87;;;13.90;99.90;;;;;;6090923;23;20217;-84
2022/05/24 02:22:20;;;;;;;5.63;4.27;;;14.00;99.90;;;;;;6093189;23;20231;-84
2022/05/24 02:24:58;;;;;;;6.63;4.07;;;14.00;99.90;;;;;;6091090;23;20231;-81
2022/05/24 02:27:25;;;;;;;5.57;3.63;;;14.00;99.90;;;;;;6091080;23;20200;-81
2022/05/24 02:29:51;;;;;;;4.67;3.07;;;14.00;99.90;;;;;;6091024;23;20193;-81
2022/05/24 02:32:16;;;;;;;6.23;3.70;;;14.00;99.90;;;;;;6092350;23;20271;-81
2022/05/24 02:34:42;;;;;;;7.30;3.83;;;14.00;99.90;;;;;;6090771;23;20192;-82
2022/05/24 02:37:08;;;;;;;9.00;4.53;;;14.00;99.90;;;;;;6091728;23;20172;-83
2022/05/24 02:41:28;;;;;;;7.13;4.43;;;14.00;99.90;;;;;;6092789;23;20263;-81
2022/05/24 02:42:20;;;;;;;7.63;4.13;;;14.00;99.90;;;;;;6091367;23;20280;-80
2022/05/24 02:44:45;;;;;;;6.97;4.93;;;14.00;99.90;;;;;;6066896;23;20228;-80
2022/05/24 02:47:11;;;;;;;9.73;5.13;;;14.00;99.90;;;;;;6092518;23;20263;-80
2022/05/24 02:49:37;;;;;;;8.87;4.27;;;14.00;99.90;;;;;;6067130;23;20248;-81
2022/05/24 02:52:03;;;;;;;11.37;5.37;;;14.10;99.90;;;;;;6067144;23;20260;-84
2022/05/24 02:54:30;;;;;;;6.70;4.77;;;14.10;99.90;;;;;;6066724;23;20207;-80
2022/05/24 02:56:55;;;;;;;11.93;6.37;;;14.10;99.90;;;;;;6090842;23;20207;-82
2022/05/24 02:59:21;;;;;;;10.57;5.43;;;14.00;99.90;;;;;;6066920;23;20530;-85
2022/05/24 03:01:47;;;;;;;10.90;5.67;;;14.10;99.90;;;;;;6092085;23;20207;-80
2022/05/24 03:04:12;;;;;;;12.60;6.57;;;14.10;99.90;;;;;;6091287;23;20161;-82
2022/05/24 03:09:35;;;;;;;16.10;7.27;;;14.10;99.90;;;;;;6091129;23;20707;-79
2022/05/24 03:14:50;;;;;;;9.63;5.33;;;14.10;99.90;;;;;;6092214;23;20224;-80
2022/05/24 03:17:16;;;;;;;11.40;6.53;;;14.10;99.90;;;;;;6090701;23;20200;-81
2022/05/24 03:19:43;;;;;;;13.27;7.60;;;14.10;99.90;;;;;;6090370;23;20276;-80
2022/05/24 03:22:09;;;;;;;14.47;8.60;;;14.10;99.90;;;;;;6067859;23;20164;-81
2022/05/24 03:24:35;;;;;;;10.53;6.80;;;14.20;99.90;;;;;;6090353;23;20212;-81
2022/05/24 03:27:07;;;;;;;12.63;7.37;;;14.20;99.90;;;;;;6089715;23;20225;-83
2022/05/24 03:29:34;;;;;;;7.77;5.53;;;14.30;99.90;;;;;;6068026;23;20263;-80
2022/05/24 03:32:00;;;;;;;10.50;6.53;;;14.20;99.90;;;;;;6066574;23;20256;-84
2022/05/24 03:34:26;;;;;;;12.30;6.20;;;14.20;99.90;;;;;;6066955;23;20251;-82
2022/05/24 03:36:52;;;;;;;11.40;6.37;;;14.20;99.90;;;;;;6091168;23;20188;-82
2022/05/24 03:39:18;;;;;;;9.23;5.70;;;14.30;99.90;;;;;;6090568;23;20377;-79
2022/05/24 03:41:46;;;;;;;19.20;7.27;;;14.20;99.90;;;;;;6090320;23;20256;-79
2022/05/24 03:44:12;;;;;;;10.80;5.03;;;14.20;99.90;;;;;;6066844;23;20204;-82
2022/05/24 03:46:38;;;;;;;11.17;6.97;;;14.30;99.90;;;;;;6090282;23;20167;-80
2022/05/24 03:49:04;;;;;;;11.17;4.60;;;14.30;99.90;;;;;;6090759;23;20157;-84
2022/05/24 03:51:30;;;;;;;7.83;3.17;;;14.20;99.90;;;;;;6090319;23;20204;-81
2022/05/24 03:53:56;;;;;;;5.77;3.80;;;14.20;99.90;;;;;;6070441;23;20216;-84
2022/05/24 03:56:23;;;;;;;6.90;4.10;;;14.20;99.90;;;;;;6090167;23;20188;-81
2022/05/24 03:58:49;;;;;;;6.27;4.03;;;14.20;99.90;;;;;;6066519;23;20192;-81
2022/05/24 04:01:15;;;;;;;8.20;3.10;;;14.10;99.90;;;;;;6090886;23;20165;-81
2022/05/24 04:03:40;;;;;;;2.93;2.63;;;14.10;99.90;;;;;;6090567;23;20200;-81
2022/05/24 04:06:06;;;;;;;4.27;2.93;;;14.10;99.90;;;;;;6090279;23;20207;-80
2022/05/24 04:08:32;;;;;;;9.00;3.60;;;14.10;99.90;;;;;;6091520;23;20247;-81
2022/05/24 04:11:04;;;;;;;3.97;2.93;;;14.10;99.90;;;;;;6065832;23;20287;-80
2022/05/24 04:13:31;;;;;;;4.43;2.63;;;14.20;99.90;;;;;;6090057;23;20213;-82
2022/05/24 04:15:57;;;;;;;14.30;3.43;;;14.20;99.90;;;;;;6090192;23;20161;-82
2022/05/24 04:18:23;;;;;;;6.13;3.10;;;14.20;99.90;;;;;;6091511;23;20197;-80
2022/05/24 04:20:49;;;;;;;4.23;3.07;;;14.20;99.90;;;;;;6066125;23;20196;-81
2022/05/24 04:23:19;;;;;;;4.87;2.97;;;14.10;99.90;;;;;;6090046;23;20197;-80
2022/05/24 04:25:45;;;;;;;3.47;2.63;;;14.10;99.90;;;;;;6090890;23;20216;-80
2022/05/24 04:28:11;;;;;;;2.37;2.10;;;14.10;99.90;;;;;;6090455;23;20153;-82
2022/05/24 04:30:38;;;;;;;3.30;2.63;;;14.10;99.90;;;;;;6090221;23;20205;-80
2022/05/24 04:33:03;;;;;;;3.87;2.50;;;14.10;99.90;;;;;;6089617;23;20203;-81
2022/05/24 04:35:29;;;;;;;2.70;1.80;;;14.10;99.90;;;;;;6089921;23;20237;-80
2022/05/24 04:37:55;;;;;;;2.37;1.83;;;14.20;99.90;;;;;;6089888;23;20528;-83
2022/05/24 04:42:18;;;;;;;2.67;2.13;;;14.20;99.90;;;;;;6066019;23;20172;-80
2022/05/24 04:43:07;;;;;;;7.07;2.27;;;14.30;99.90;;;;;;6090636;23;20728;-79
2022/05/24 04:45:33;;;;;;;3.00;2.20;;;14.40;99.90;;;;;;6065878;23;20219;-84
2022/05/24 04:47:58;;;;;;;2.97;1.77;;;14.50;99.90;;;;;;6065983;23;20196;-80
2022/05/24 04:50:24;;;;;;;5.73;1.93;;;14.50;99.90;;;;;;6089947;23;20596;-80
2022/05/24 04:52:50;;;;;;;3.70;2.47;;;14.70;99.90;;;;;;6065770;23;20418;-80
2022/05/24 04:55:15;;;;;;;4.93;2.33;;;14.80;99.90;;;;;;6066523;23;20544;-80
2022/05/24 04:57:43;;;;;;;4.80;2.90;;;14.80;99.90;;;;;;6065787;23;20193;-81
2022/05/24 05:00:13;;;;;;;4.67;2.07;;;14.90;99.90;;;;;;6065876;23;20224;-84
2022/05/24 05:02:40;;;;;;;4.70;2.83;;;14.80;99.90;;;;;;6066148;23;20197;-82
2022/05/24 05:05:07;;;;;;;4.00;2.67;;;15.00;99.90;;;;;;6089857;23;20356;-80
2022/05/24 05:07:33;;;;;;;4.87;3.03;;;15.10;99.90;;;;;;6091243;23;20173;-82
2022/05/24 05:09:59;;;;;;;6.97;3.10;;;15.00;99.90;;;;;;6065844;23;20228;-85
2022/05/24 05:12:26;;;;;;;4.00;2.73;;;14.90;99.90;;;;;;6089719;23;20204;-81
2022/05/24 05:14:52;;;;;;;8.90;3.67;;;14.90;99.90;;;;;;6065930;23;20200;-80
2022/05/24 05:17:19;;;;;;;5.27;2.70;;;15.20;99.90;;;;;;6065572;23;20208;-84
2022/05/24 05:19:45;;;;;;;7.23;3.90;;;15.20;99.90;;;;;;6089729;23;20204;-81
2022/05/24 05:22:12;;;;;;;8.17;3.40;;;15.60;99.90;;;;;;6090203;23;20188;-82
2022/05/24 05:24:38;;;;;;;5.93;3.03;;;15.50;99.90;;;;;;6091188;23;20208;-82
2022/05/24 05:27:05;;;;;;;4.33;3.33;;;15.50;99.90;;;;;;6090905;23;20201;-81
2022/05/24 05:32:26;;;;;;;9.60;5.23;;;15.40;99.90;;;;;;6089778;23;20208;-80
2022/05/24 05:34:53;;;;;;;8.50;4.00;;;15.50;99.90;;;;;;6091070;23;20196;-80
2022/05/24 05:37:19;;;;;;;8.53;4.87;;;15.40;99.90;;;;;;6090714;23;20160;-81
2022/05/24 05:39:45;;;;;;;6.47;4.03;;;15.80;99.90;;;;;;6066686;23;20188;-81
2022/05/24 05:42:11;;;;;;;10.07;5.03;;;15.80;99.90;;;;;;6089474;23;20634;-82
2022/05/24 05:44:38;;;;;;;5.80;4.10;;;15.80;99.90;;;;;;6090834;23;20201;-83
2022/05/24 05:47:05;;;;;;;6.70;3.43;;;15.90;99.90;;;;;;6090930;23;20784;-82
2022/05/24 05:49:31;;;;;;;5.00;4.00;;;15.90;99.90;;;;;;6065758;23;20161;-81
2022/05/24 05:51:56;;;;;;;9.23;4.63;;;15.80;99.90;;;;;;6091475;23;20194;-80
2022/05/24 05:54:23;;;;;;;11.93;4.77;;;15.90;99.90;;;;;;6067294;23;20635;-81
2022/05/24 05:56:50;;;;;;;11.40;5.07;;;15.70;99.90;;;;;;6067315;23;20196;-82
2022/05/24 05:59:16;;;;;;;7.57;5.20;;;15.70;99.90;;;;;;6091256;23;20279;-83
2022/05/24 06:01:42;;;;;;;4.87;3.83;;;15.60;99.90;;;;;;6091428;23;20528;-83
2022/05/24 06:04:09;;;;;;;6.37;4.67;;;15.50;99.90;;;;;;6091976;23;20611;-80
2022/05/24 06:06:40;;;;;;;8.87;4.70;;;15.30;99.90;;;;;;6092722;23;20189;-83
2022/05/24 06:09:06;;;;;;;9.70;4.77;;;15.20;99.90;;;;;;6092988;23;20203;-82
2022/05/24 06:11:32;;;;;;;7.03;5.00;;;15.20;99.90;;;;;;6090970;23;20205;-84
2022/05/24 06:13:58;;;;;;;6.53;3.93;;;15.30;99.90;;;;;;6067649;23;20195;-82
2022/05/24 06:16:23;;;;;;;9.60;4.97;;;15.30;99.90;;;;;;6091424;23;20191;-81
2022/05/24 06:18:49;;;;;;;9.63;4.70;;;15.20;99.90;;;;;;6091538;23;20325;-84
2022/05/24 06:21:15;;;;;;;7.83;3.67;;;15.20;99.90;;;;;;6091386;23;20252;-80
2022/05/24 06:23:41;;;;;;;6.57;3.53;;;15.00;99.90;;;;;;6092359;23;20196;-82
2022/05/24 06:26:08;;;;;;;4.60;2.27;;;14.90;99.90;;;;;;6067566;23;20300;-80
2022/05/24 06:28:35;;;;;;;2.47;2.20;;;14.90;99.90;;;;;;6094257;23;20189;-82
2022/05/24 06:31:00;;;;;;;7.17;1.50;;;14.90;99.90;;;;;;6105552;23;20184;-83
2022/05/24 06:33:26;;;;;;;1.70;1.30;;;14.70;99.90;;;;;;6067669;23;20267;-83
2022/05/24 06:35:53;;;;;;;3.13;1.70;;;14.80;99.90;;;;;;6091314;23;20360;-80
2022/05/24 06:38:18;;;;;;;4.97;1.37;;;14.90;99.90;;;;;;6066902;23;20213;-82
2022/05/24 06:40:46;;;;;;;5.03;2.57;;;15.00;99.90;;;;;;6069362;23;20251;-81
2022/05/24 06:43:13;;;;;;;3.53;1.30;;;14.90;99.90;;;;;;6091956;23;20236;-81
2022/05/24 06:45:40;;;;;;;5.30;1.50;;;15.00;99.90;;;;;;6091163;23;20252;-84
2022/05/24 06:48:12;;;;;;;1.30;1.20;;;15.10;99.90;;;;;;6067109;23;20538;-80
2022/05/24 06:50:40;;;;;;;5.57;1.63;;;15.20;99.90;;;;;;6091333;23;20279;-83
2022/05/24 06:53:06;;;;;;;4.97;1.73;;;15.40;99.90;;;;;;6090926;23;20203;-81
2022/05/24 06:55:32;;;;;;;1.87;1.10;;;15.80;99.90;;;;;;6092509;23;20184;-82
2022/05/24 06:57:57;;;;;;;1.47;1.20;;;15.80;99.90;;;;;;6067427;23;20603;-82
2022/05/24 07:03:11;;;;;;;11.87;2.80;;;16.00;99.90;;;;;;6091307;23;20197;-82
2022/05/24 07:05:37;;;;;;;2.37;1.57;;;16.10;99.90;;;;;;6091065;23;20421;-85
2022/05/24 07:08:04;;;;;;;2.20;1.97;;;16.10;99.90;;;;;;6090529;23;20197;-84
2022/05/24 07:10:31;;;;;;;7.83;2.23;;;16.10;99.90;;;;;;6067178;23;20184;-85
2022/05/24 07:13:02;;;;;;;6.37;1.97;;;16.10;99.90;;;;;;6093076;23;20193;-82
2022/05/24 07:15:28;;;;;;;3.47;2.40;;;15.90;99.90;;;;;;6091329;23;20193;-83
2022/05/24 07:17:54;;;;;;;6.10;2.40;;;16.00;99.90;;;;;;6067248;23;20193;-81
2022/05/24 07:20:21;;;;;;;4.07;2.43;;;16.00;99.90;;;;;;6066940;23;20275;-83
2022/05/24 07:22:48;;;;;;;2.47;1.67;;;15.80;99.90;;;;;;6090916;23;20192;-82
2022/05/24 07:25:15;;;;;;;2.77;1.90;;;15.80;99.90;;;;;;6091212;23;20211;-83
2022/05/24 07:27:41;;;;;;;4.67;2.07;;;15.80;99.90;;;;;;6090399;23;20651;-83
2022/05/24 07:30:08;;;;;;;3.63;2.23;;;15.60;99.90;;;;;;6066632;23;20197;-84
2022/05/24 07:32:34;;;;;;;4.03;1.70;;;15.50;99.90;;;;;;6092333;23;20204;-81
2022/05/24 07:35:01;;;;;;;2.90;2.07;;;15.40;99.90;;;;;;6066668;23;20200;-81
2022/05/24 07:37:27;;;;;;;2.80;1.77;;;15.40;99.90;;;;;;6090735;23;20589;-81
2022/05/24 07:45:48;;;;;;;4.33;1.97;;;15.50;99.90;;;;;;6091592;23;20156;-81
2022/05/24 07:48:09;;;;;;;1.83;1.57;;;15.90;99.90;;;;;;6092456;23;20272;-82
2022/05/24 07:50:36;;;;;;;5.17;2.03;;;16.00;99.90;;;;;;6090800;23;20209;-82
2022/05/24 07:53:01;;;;;;;2.27;2.07;;;16.40;99.90;;;;;;6066350;23;20192;-84
2022/05/24 07:55:27;;;;;;;4.30;1.33;;;16.90;99.90;;;;;;6090564;23;20194;-81
2022/05/24 07:57:53;;;;;;;4.03;1.83;;;16.80;99.90;;;;;;6067554;23;20212;-80
2022/05/24 08:00:19;;;;;;;4.67;1.80;;;17.80;99.90;;;;;;6066572;23;20772;-82
2022/05/24 08:02:49;;;;;;;1.50;1.37;;;18.10;99.90;;;;;;6090563;23;20240;-82
2022/05/24 08:05:16;;;;;;;7.07;2.70;;;18.40;99.90;;;;;;6091600;23;20643;-82
2022/05/24 08:07:42;;;;;;;1.83;1.33;;;17.20;99.90;;;;;;6090260;23;20592;-83
2022/05/24 08:10:08;;;;;;;4.33;1.97;;;16.20;99.90;;;;;;6090299;23;20165;-82
2022/05/24 08:12:34;;;;;;;3.43;2.30;;;16.00;99.90;;;;;;6091795;23;20621;-83
2022/05/24 08:15:01;;;;;;;2.80;1.90;;;15.90;99.90;;;;;;6089924;23;20228;-80
2022/05/24 08:17:27;;;;;;;3.20;2.17;;;15.80;99.90;;;;;;6089847;23;20259;-85
2022/05/24 08:19:53;;;;;;;3.07;2.10;;;15.50;99.90;;;;;;6089960;23;20193;-80
2022/05/24 08:22:19;;;;;;;3.80;2.03;;;15.50;99.90;;;;;;6089990;23;20160;-80
2022/05/24 08:24:45;;;;;;;2.70;1.17;;;15.60;99.90;;;;;;6090307;23;20212;-80
2022/05/24 08:27:14;;;;;;;3.03;1.60;;;15.70;99.90;;;;;;6091581;23;20244;-81
2022/05/24 08:29:40;;;;;;;3.67;1.93;;;16.20;99.90;;;;;;6067230;23;20200;-83
2022/05/24 08:32:07;;;;;;;2.37;2.10;;;16.50;99.90;;;;;;6090058;23;20288;-80
2022/05/24 08:34:32;;;;;;;7.53;2.80;;;16.40;99.90;;;;;;6089958;23;20561;-81
2022/05/24 08:36:59;;;;;;;6.60;2.43;;;16.00;99.90;;;;;;6067039;23;20165;-80
2022/05/24 08:39:25;;;;;;;1.50;1.30;;;15.80;99.90;;;;;;6089913;23;20682;-80
2022/05/24 08:42:06;;;;;;;2.57;1.73;;;15.80;99.90;;;;;;6090161;23;20196;-81
2022/05/24 08:50:24;;;;;;;2.30;2.00;;;15.20;99.90;;;;;;6091676;23;20225;-85
2022/05/24 08:53:09;;;;;;;2.70;2.17;;;14.70;99.90;;;;;;6089623;23;20248;-85
2022/05/24 08:55:38;;;;;;;2.10;1.90;;;14.60;99.90;;;;;;6090067;23;20171;-82
2022/05/24 08:58:09;;;;;;;4.03;1.67;;;14.60;99.90;;;;;;6090691;23;20153;-81
2022/05/24 09:00:40;;;;;;;2.93;2.20;;;14.60;99.90;;;;;;6090025;23;20197;-83
2022/05/24 09:03:07;;;;;;;3.73;2.13;;;14.80;99.90;;;;;;6091718;23;20200;-86
2022/05/24 09:05:38;;;;;;;4.70;3.43;;;14.90;99.90;;;;;;6066059;23;20288;-81
2022/05/24 09:08:26;;;;;;;3.80;2.70;;;15.20;99.90;;;;;;6089789;23;20639;-85
2022/05/24 09:11:04;;;;;;;2.90;2.40;;;15.40;99.90;;;;;;6090002;23;20275;-81
2022/05/24 09:14:20;;;;;;;1.93;1.80;;;15.50;99.90;;;;;;6104897;23;20141;-83
2022/05/24 09:17:10;;;;;;;4.57;2.80;;;15.90;99.90;;;;;;6084505;23;20244;-82
2022/05/24 09:19:38;;;;;;;3.67;2.67;;;16.80;99.90;;;;;;6090239;23;20145;-82
2022/05/24 09:22:06;;;;;;;2.33;2.13;;;17.90;99.90;;;;;;6092173;23;20157;-83
2022/05/24 09:24:44;;;;;;;2.10;1.63;;;18.40;99.90;;;;;;6065463;23;20212;-82
2022/05/24 09:27:16;;;;;;;4.40;3.20;;;18.40;99.90;;;;;;6089752;23;20215;-81
2022/05/24 09:30:02;;;;;;;4.30;2.17;;;18.10;99.90;;;;;;6091101;23;20193;-83
2022/05/24 09:32:39;;;;;;;9.00;2.37;;;17.60;99.90;;;;;;6091240;23;20231;-83
2022/05/24 09:35:21;;;;;;;2.13;1.90;;;16.90;99.90;;;;;;6090969;23;20188;-84
2022/05/24 09:38:14;;;;;;;2.63;1.90;;;17.20;99.90;;;;;;6089890;23;20583;-82
2022/05/24 09:40:55;;;;;;;3.97;2.40;;;17.40;99.90;;;;;;6091064;23;20192;-85
2022/05/24 09:43:27;;;;;;;2.33;2.00;;;18.10;99.90;;;;;;6089422;23;20489;-83
2022/05/24 09:46:14;;;;;;;3.50;2.83;;;18.40;99.90;;;;;;6090120;23;20247;-81
2022/05/24 09:48:58;;;;;;;2.23;1.90;;;18.40;99.90;;;;;;6091417;23;20387;-85
2022/05/24 09:51:44;;;;;;;2.80;1.77;;;17.50;99.90;;;;;;6091101;23;20207;-81
2022/05/24 09:54:24;;;;;;;5.30;3.17;;;16.50;99.90;;;;;;6089581;23;20416;-83
2022/05/24 09:57:07;;;;;;;3.73;2.30;;;16.00;99.90;;;;;;6089861;23;20196;-83
2022/05/24 09:59:35;;;;;;;3.10;1.40;;;15.50;99.90;;;;;;6089919;23;20216;-86
2022/05/24 10:02:20;;;;;;;1.53;1.40;;;14.80;99.90;;;;;;6090016;23;20196;-82
2022/05/24 10:04:46;;;;;;;3.07;1.40;;;14.40;99.90;;;;;;6069964;23;20193;-82
2022/05/24 10:07:21;;;;;;;1.20;1.10;;;14.50;99.90;;;;;;6091974;23;20165;-83
2022/05/24 10:10:14;;;;;;;3.57;1.67;;;14.70;99.90;;;;;;6091310;23;20184;-82
2022/05/24 10:12:51;;;;;;;3.00;1.97;;;15.00;99.90;;;;;;6089947;23;20212;-81
2022/05/24 10:15:29;;;;;;;1.60;1.43;;;15.10;99.90;;;;;;6089729;23;20192;-85
2022/05/24 10:18:29;;;;;;;4.87;2.40;;;15.40;99.90;;;;;;6089709;23;20197;-82
2022/05/24 10:21:25;;;;;;;9.50;2.57;;;15.20;99.90;;;;;;6091817;23;20201;-84
2022/05/24 10:24:15;;;;;;;5.20;3.20;;;15.20;99.90;;;;;;6089593;23;20219;-83
2022/05/24 10:27:01;;;;;;;2.77;2.00;;;15.20;99.90;;;;;;6091412;23;20205;-83
2022/05/24 10:29:53;;;;;;;0.87;0.87;;;15.20;99.90;;;;;;6089679;23;20200;-81
2022/05/24 10:38:40;;;;;;;0.37;0.37;;;15.10;99.90;;;;;;6092948;23;20488;-82
2022/05/24 10:41:15;;;;;;;1.17;0.97;;;15.80;99.90;;;;;;6089934;23;20206;-82
2022/05/24 10:43:58;;;;;;;0.70;0.70;;;15.80;99.90;;;;;;6091414;23;20271;-82
2022/05/24 10:46:43;;;;;;;0.50;0.50;;;15.80;99.90;;;;;;6091185;23;20609;-82
2022/05/24 10:49:26;;;;;;;1.17;0.93;;;15.80;99.90;;;;;;6093740;23;20157;-83
2022/05/24 10:52:01;;;;;;;1.83;0.93;;;15.60;99.90;;;;;;6091376;23;20473;-81
2022/05/24 10:54:36;;;;;;;3.90;1.30;;;15.60;99.90;;;;;;6091381;23;20242;-84
2022/05/24 10:57:08;;;;;;;1.87;1.27;;;15.60;99.90;;;;;;6092096;23;20207;-88
2022/05/24 10:59:42;;;;;;;1.83;1.20;;;15.80;99.90;;;;;;6091641;23;20280;-80
2022/05/24 11:02:23;;;;;;;0.70;0.70;;;16.40;99.90;;;;;;6090977;23;20256;-80
2022/05/24 11:04:55;;;;;;;0.83;0.60;;;17.00;99.90;;;;;;6091170;23;20386;-81
2022/05/24 11:07:21;;;;;;;1.20;1.10;;;16.40;99.90;;;;;;6092045;23;20445;-84
2022/05/24 11:10:06;;;;;;;1.73;1.63;;;16.20;99.90;;;;;;6092882;23;20176;-82
2022/05/24 11:12:40;;;;;;;0.83;0.83;;;16.00;99.90;;;;;;6090683;23;20204;-81
2022/05/24 11:15:16;;;;;;;3.63;1.90;;;15.50;99.90;;;;;;6092315;23;20196;-82
2022/05/24 11:17:42;;;;;;;2.27;0.90;;;15.60;99.90;;;;;;6092578;23;20689;-84
2022/05/24 11:20:10;;;;;;;2.37;2.10;;;15.20;99.90;;;;;;6090475;23;20212;-81
2022/05/24 11:22:50;;;;;;;0.73;0.73;;;14.70;99.90;;;;;;6090626;23;20621;-83
2022/05/24 11:25:27;;;;;;;0.70;0.70;;;14.20;99.90;;;;;;6092546;23;20539;-81
2022/05/24 11:28:25;;;;;;;4.20;1.10;;;14.00;99.90;;;;;;6091193;23;20215;-86
2022/05/24 11:30:52;;;;;;;2.93;1.10;;;14.30;99.90;;;;;;6090915;23;20592;-84
2022/05/24 11:33:39;;;;;;;5.37;1.20;;;15.40;99.90;;;;;;6090875;23;20205;-79
2022/05/24 11:36:34;;;;;;;4.27;1.07;;;15.90;99.90;;;;;;6092359;23;20650;-79
2022/05/24 11:39:26;;;;;;;2.90;0.80;;;16.40;99.90;;;;;;6091861;23;20260;-79
2022/05/24 11:42:19;;;;;;;1.47;1.03;;;16.40;99.90;;;;;;6092406;23;20205;-83
2022/05/24 11:44:45;;;;;;;1.33;1.23;;;16.40;99.90;;;;;;6090914;23;20678;-80
2022/05/24 11:47:34;;;;;;;2.30;0.90;;;16.00;99.90;;;;;;6066433;23;20200;-82
2022/05/24 11:50:04;;;;;;;1.30;1.20;;;15.90;99.90;;;;;;6090656;23;20193;-80
2022/05/24 11:53:11;;;;;;;1.83;0.70;;;15.70;99.90;;;;;;6092023;23;20268;-84
2022/05/24 11:56:05;;;;;;;2.43;1.37;;;15.50;99.90;;;;;;6082632;23;20543;-82
2022/05/24 11:58:31;;;;;;;0.77;0.77;;;16.20;99.90;;;;;;6088836;23;20537;-82
2022/05/24 12:01:01;;;;;;;0.87;0.70;;;16.40;99.90;;;;;;6094193;23;20165;-83
2022/05/24 12:09:25;;;;;;;1.00;0.60;;;15.50;99.90;;;;;;6091536;23;20196;-81
2022/05/24 12:12:18;;;;;;;0.77;0.77;;;15.90;99.90;;;;;;6090213;23;20213;-86
2022/05/24 12:14:43;;;;;;;0.60;0.60;;;16.30;99.90;;;;;;6090462;23;20416;-83
2022/05/24 12:17:14;;;;;;;4.83;1.03;;;16.00;99.90;;;;;;6066229;23;20667;-83
2022/05/24 12:19:42;;;;;;;1.63;1.10;;;16.00;99.90;;;;;;6091657;23;20638;-81
2022/05/24 12:22:13;;;;;;;0.40;0.40;;;16.20;99.90;;;;;;6090756;23;20679;-84
2022/05/24 12:24:39;;;;;;;1.07;0.97;;;16.20;99.90;;;;;;6091472;23;20309;-85
2022/05/24 12:27:13;;;;;;;0.47;0.47;;;16.00;99.90;;;;;;6091506;23;20643;-84
2022/05/24 12:29:44;;;;;;;1.70;0.30;;;15.80;99.90;;;;;;6091023;23;20320;-84
2022/05/24 12:32:10;;;;;;;0.67;0.63;;;15.90;99.90;;;;;;6092138;23;20205;-83
2022/05/24 12:34:36;;;;;;;2.17;1.20;;;16.00;99.90;;;;;;6090650;23;20250;-85
2022/05/24 12:37:15;;;;;;;0.30;0.30;;;16.10;99.90;;;;;;6067695;23;20161;-84
2022/05/24 12:39:41;;;;;;;1.90;0.50;;;16.00;99.90;;;;;;6092265;23;20200;-86
2022/05/24 12:42:12;;;;;;;0.83;0.57;;;16.00;99.90;;;;;;6067028;23;20208;-85
2022/05/24 12:44:41;;;;;;;2.47;1.30;;;15.70;99.90;;;;;;6090793;23;20268;-85
2022/05/24 12:47:06;;;;;;;0.60;0.60;;;16.00;99.90;;;;;;6089651;23;20268;-86
2022/05/24 12:49:57;;;;;;;0.40;0.40;;;16.50;99.90;;;;;;6091483;23;20187;-83
2022/05/24 12:52:32;;;;;;;3.67;0.90;;;16.40;99.90;;;;;;6082859;23;20223;-83
2022/05/24 12:55:06;;;;;;;0.80;0.80;;;16.30;99.90;;;;;;6090549;23;20148;-85
2022/05/24 12:57:37;;;;;;;2.30;1.20;;;15.90;99.90;;;;;;6091748;23;20200;-82
2022/05/24 13:00:08;;;;;;;0.90;0.70;;;16.20;99.90;;;;;;6092255;23;20201;-83
2022/05/24 13:02:45;;;;;;;1.40;1.10;;;16.10;99.90;;;;;;6092292;23;20527;-85
2022/05/24 13:05:17;;;;;;;1.10;1.00;;;16.80;99.90;;;;;;6089001;23;20196;-83
2022/05/24 13:07:55;;;;;;;0.93;0.83;;;16.90;99.90;;;;;;6089113;23;20287;-84
2022/05/24 13:10:23;;;;;;;0.30;0.30;;;16.30;99.90;;;;;;6090945;23;20180;-89
2022/05/24 13:13:10;;;;;;;1.30;1.20;;;15.90;99.90;;;;;;6091726;23;20164;-87
2022/05/24 13:15:52;;;;;;;2.10;1.67;;;16.00;99.90;;;;;;6091036;23;20197;-82
2022/05/24 13:18:31;;;;;;;0.80;0.80;;;16.50;99.90;;;;;;6091089;23;20267;-84
2022/05/24 13:21:02;;;;;;;3.40;1.40;;;16.70;99.90;;;;;;6092751;23;20818;-88
2022/05/24 13:23:32;;;;;;;1.57;1.47;;;16.30;99.90;;;;;;6090520;23;20200;-85
2022/05/24 13:26:01;;;;;;;4.20;1.60;;;15.80;99.90;;;;;;6092553;23;20212;-85
2022/05/24 13:28:41;;;;;;;1.63;1.53;;;15.80;99.90;;;;;;6090845;23;20168;-85
2022/05/24 13:34:11;;;;;;;0.50;0.50;;;15.90;99.90;;;;;;6092966;23;20189;-87
2022/05/24 13:36:52;;;;;;;1.50;1.40;;;16.20;99.90;;;;;;6091142;23;20196;-84
2022/05/24 13:39:25;;;;;;;1.50;1.13;;;16.70;99.90;;;;;;6092942;23;20192;-85
2022/05/24 13:41:57;;;;;;;4.53;0.83;;;16.70;99.90;;;;;;6091659;23;20644;-85
2022/05/24 13:44:30;;;;;;;1.33;1.23;;;16.70;99.90;;;;;;6090906;23;20224;-83
2022/05/24 13:47:04;;;;;;;0.97;0.97;;;16.60;99.90;;;;;;6092454;23;20271;-82
2022/05/24 13:49:32;;;;;;;1.93;1.17;;;16.70;99.90;;;;;;6092433;23;20187;-87